createdAt,value
2023-09-16T00:03:19.114Z,12.14
2023-09-16T00:13:23.126Z,12.13
2023-09-16T00:23:26.985Z,12.10
2023-09-16T00:33:31.475Z,12.07
2023-09-16T00:43:35.784Z,12.06
2023-09-16T00:53:39.696Z,12.04
2023-09-16T01:03:44.319Z,11.98
2023-09-16T01:13:51.699Z,11.91
2023-09-16T01:24:24.904Z,11.80
2023-09-16T01:34:41.468Z,11.68
2023-09-16T01:44:45.228Z,11.66
2023-09-16T01:54:49.009Z,11.62
2023-09-16T02:04:54.946Z,11.52
2023-09-16T02:14:58.887Z,11.47
2023-09-16T02:25:04.991Z,11.44
2023-09-16T02:35:09.099Z,11.37
2023-09-16T02:45:13.403Z,11.31
2023-09-16T02:55:18.001Z,11.30
2023-09-16T03:05:22.219Z,11.21
2023-09-16T03:15:26.054Z,11.14
2023-09-16T03:25:29.904Z,11.04
2023-09-16T03:35:36.227Z,11.04
2023-09-16T03:45:40.518Z,10.98
2023-09-16T03:55:44.543Z,10.89
2023-09-16T04:05:49.707Z,10.83
2023-09-16T04:15:53.570Z,10.79
2023-09-16T04:25:58.413Z,10.75
2023-09-16T04:36:05.504Z,10.82
2023-09-16T04:46:10.503Z,11.07
2023-09-16T04:56:21.809Z,11.29
2023-09-16T05:06:30.357Z,11.54
2023-09-16T05:16:35.357Z,11.85
2023-09-16T05:26:45.358Z,12.17
2023-09-16T05:36:49.354Z,12.68
2023-09-16T05:46:56.291Z,13.14
2023-09-16T05:57:01.811Z,13.54
2023-09-16T06:07:05.725Z,13.91
2023-09-16T06:17:09.678Z,14.32
2023-09-16T06:27:15.577Z,14.66
2023-09-16T06:37:19.358Z,15.06
2023-09-16T06:47:28.130Z,15.31
2023-09-16T06:57:33.145Z,15.48
2023-09-16T07:07:39.157Z,15.77
2023-09-16T07:17:43.010Z,16.00
2023-09-16T07:27:47.404Z,16.44
2023-09-16T07:37:52.656Z,16.66
2023-09-16T07:47:56.407Z,16.91
2023-09-16T07:58:00.241Z,17.27
2023-09-16T08:08:05.652Z,17.68
2023-09-16T08:18:09.422Z,17.90
2023-09-16T08:28:13.319Z,18.27
2023-09-16T08:38:17.357Z,18.53
2023-09-16T08:48:23.385Z,18.79
2023-09-16T08:58:28.388Z,19.00
2023-09-16T09:08:34.449Z,19.19
2023-09-16T09:18:40.080Z,19.50
2023-09-16T09:28:48.433Z,19.74
2023-09-16T09:38:52.841Z,20.03
2023-09-16T09:48:57.669Z,20.16
2023-09-16T09:59:02.202Z,20.27
2023-09-16T10:09:06.690Z,20.45
2023-09-16T10:19:12.276Z,20.49
2023-09-16T10:29:18.028Z,20.65
2023-09-16T10:39:22.993Z,20.75
2023-09-16T10:49:26.910Z,20.89
2023-09-16T10:59:33.148Z,21.04
2023-09-16T11:09:37.384Z,21.16
2023-09-16T11:19:43.479Z,21.28
2023-09-16T11:29:52.547Z,21.48
2023-09-16T11:40:02.391Z,21.44
2023-09-16T11:50:20.783Z,21.51
2023-09-16T12:00:24.558Z,21.67
2023-09-16T12:10:28.548Z,21.73
2023-09-16T12:20:33.671Z,21.81
2023-09-16T12:30:44.820Z,21.94
2023-09-16T12:40:52.863Z,22.06
2023-09-16T12:50:57.446Z,22.08
2023-09-16T13:01:01.259Z,22.21
2023-09-16T13:11:05.302Z,22.34
2023-09-16T13:21:09.146Z,22.37
2023-09-16T13:31:12.925Z,22.51
2023-09-16T13:41:16.728Z,22.57
2023-09-16T13:51:20.653Z,22.74
2023-09-16T14:01:25.647Z,22.59
2023-09-16T14:11:29.855Z,22.62
2023-09-16T14:21:33.565Z,22.60
2023-09-16T14:31:37.595Z,22.59
2023-09-16T14:41:41.552Z,22.59
2023-09-16T14:51:48.520Z,22.54
2023-09-16T15:01:52.306Z,22.50
2023-09-16T15:11:56.258Z,22.45
2023-09-16T15:22:00.063Z,22.39
2023-09-16T15:32:33.969Z,22.30
2023-09-16T15:42:28.103Z,22.06
2023-09-16T15:52:31.840Z,21.86
2023-09-16T16:02:38.148Z,21.64
2023-09-16T16:12:43.700Z,21.35
2023-09-16T16:22:47.869Z,21.10
2023-09-16T16:32:52.246Z,20.80
2023-09-16T16:42:56.017Z,20.54
2023-09-16T16:53:00.350Z,20.24
2023-09-16T17:03:05.938Z,19.87
2023-09-16T17:13:10.805Z,19.56
2023-09-16T17:23:17.552Z,19.28
2023-09-16T17:33:22.042Z,19.07
2023-09-16T17:43:25.924Z,18.84
2023-09-16T17:53:30.476Z,18.60
2023-09-16T18:03:34.372Z,18.41
2023-09-16T18:13:39.818Z,18.25
2023-09-16T18:23:43.620Z,18.12
2023-09-16T18:33:48.040Z,18.05
2023-09-16T18:43:55.460Z,17.88
2023-09-16T19:05:02.224Z,17.62
2023-09-16T19:15:07.757Z,17.52
2023-09-16T19:25:12.538Z,17.43
2023-09-16T19:35:17.644Z,17.32
2023-09-16T19:45:21.528Z,17.23
2023-09-16T19:55:26.965Z,17.17
2023-09-16T20:05:30.854Z,17.14
2023-09-16T20:15:34.823Z,17.10
2023-09-16T20:25:40.102Z,17.08
2023-09-16T20:35:44.394Z,17.06
2023-09-16T20:45:48.290Z,17.02
2023-09-16T20:55:53.405Z,17.00
2023-09-16T21:05:57.215Z,16.92
2023-09-16T21:16:01.744Z,16.88
2023-09-16T21:26:05.566Z,16.80
2023-09-16T21:36:09.299Z,16.74
2023-09-16T21:46:14.416Z,16.70
2023-09-16T21:56:19.181Z,16.61
2023-09-16T22:06:22.889Z,16.53
2023-09-16T22:16:27.972Z,16.49
2023-09-16T22:26:32.827Z,16.44
2023-09-16T22:36:36.525Z,16.36
2023-09-16T22:46:40.320Z,16.31
2023-09-16T22:56:44.586Z,16.18
2023-09-16T23:06:48.728Z,16.06
2023-09-16T23:16:52.879Z,16.08
2023-09-16T23:26:56.605Z,16.02
2023-09-16T23:37:01.571Z,15.95
2023-09-16T23:47:05.622Z,15.91
2023-09-16T23:57:09.444Z,15.86
